sensor_id;sensor_type;location;lat;lon;timestamp;P1;durP1;ratioP1;P2;durP2;ratioP2
26036;SDS011;13810;48.376;10.944;2022-12-18T00:00:09;58.35;;;21.42;;
26036;SDS011;13810;48.376;10.944;2022-12-18T00:00:41;56.08;;;20.70;;
26036;SDS011;13810;48.376;10.944;2022-12-18T00:01:17;41.67;;;16.90;;
26036;SDS011;13810;48.376;10.944;2022-12-18T00:01:52;56.30;;;19.55;;
26036;SDS011;13810;48.376;10.944;2022-12-18T00:02:27;45.60;;;16.48;;
26036;SDS011;13810;48.376;10.944;2022-12-18T00:02:57;47.90;;;17.67;;
26036;SDS011;13810;48.376;10.944;2022-12-18T00:03:28;46.65;;;18.92;;
26036;SDS011;13810;48.376;10.944;2022-12-18T00:03:59;47.00;;;18.10;;
26036;SDS011;13810;48.376;10.944;2022-12-18T00:04:32;57.78;;;21.08;;
26036;SDS011;13810;48.376;10.944;2022-12-18T00:05:02;45.33;;;18.15;;
26036;SDS011;13810;48.376;10.944;2022-12-18T00:05:33;57.78;;;20.02;;
26036;SDS011;13810;48.376;10.944;2022-12-18T00:06:04;55.08;;;19.70;;
26036;SDS011;13810;48.376;10.944;2022-12-18T00:06:35;51.40;;;19.20;;
26036;SDS011;13810;48.376;10.944;2022-12-18T00:07:06;55.22;;;19.73;;
26036;SDS011;13810;48.376;10.944;2022-12-18T00:07:36;48.17;;;19.58;;
26036;SDS011;13810;48.376;10.944;2022-12-18T00:08:07;52.35;;;18.20;;
26036;SDS011;13810;48.376;10.944;2022-12-18T00:08:38;48.55;;;18.90;;
26036;SDS011;13810;48.376;10.944;2022-12-18T00:09:09;47.63;;;20.00;;
26036;SDS011;13810;48.376;10.944;2022-12-18T00:09:40;53.35;;;19.98;;
26036;SDS011;13810;48.376;10.944;2022-12-18T00:10:11;47.65;;;16.27;;
26036;SDS011;13810;48.376;10.944;2022-12-18T00:10:42;36.90;;;16.85;;
26036;SDS011;13810;48.376;10.944;2022-12-18T00:11:14;44.13;;;16.17;;
26036;SDS011;13810;48.376;10.944;2022-12-18T00:11:46;49.28;;;18.48;;
26036;SDS011;13810;48.376;10.944;2022-12-18T00:12:17;49.05;;;18.30;;
26036;SDS011;13810;48.376;10.944;2022-12-18T00:12:47;51.83;;;19.38;;
26036;SDS011;13810;48.376;10.944;2022-12-18T00:13:18;41.25;;;17.15;;
26036;SDS011;13810;48.376;10.944;2022-12-18T00:13:49;48.65;;;18.58;;
26036;SDS011;13810;48.376;10.944;2022-12-18T00:14:20;54.42;;;19.27;;
26036;SDS011;13810;48.376;10.944;2022-12-18T00:14:50;57.00;;;19.13;;
26036;SDS011;13810;48.376;10.944;2022-12-18T00:15:21;52.90;;;19.17;;
26036;SDS011;13810;48.376;10.944;2022-12-18T00:15:52;46.42;;;17.67;;
26036;SDS011;13810;48.376;10.944;2022-12-18T00:16:23;52.22;;;17.38;;
26036;SDS011;13810;48.376;10.944;2022-12-18T00:16:55;49.30;;;17.48;;
26036;SDS011;13810;48.376;10.944;2022-12-18T00:17:28;47.13;;;18.52;;
26036;SDS011;13810;48.376;10.944;2022-12-18T00:17:58;39.28;;;15.50;;
26036;SDS011;13810;48.376;10.944;2022-12-18T00:18:29;44.25;;;17.25;;
26036;SDS011;13810;48.376;10.944;2022-12-18T00:19:00;47.30;;;19.27;;
26036;SDS011;13810;48.376;10.944;2022-12-18T00:19:31;57.38;;;18.92;;
26036;SDS011;13810;48.376;10.944;2022-12-18T00:20:02;52.15;;;19.33;;
26036;SDS011;13810;48.376;10.944;2022-12-18T00:20:37;55.33;;;16.00;;
26036;SDS011;13810;48.376;10.944;2022-12-18T00:21:09;53.03;;;18.33;;
26036;SDS011;13810;48.376;10.944;2022-12-18T00:21:41;46.60;;;17.48;;
26036;SDS011;13810;48.376;10.944;2022-12-18T00:22:12;56.90;;;19.30;;
26036;SDS011;13810;48.376;10.944;2022-12-18T00:22:43;53.60;;;19.77;;
26036;SDS011;13810;48.376;10.944;2022-12-18T00:23:14;49.05;;;18.77;;
26036;SDS011;13810;48.376;10.944;2022-12-18T00:23:45;44.83;;;17.15;;
26036;SDS011;13810;48.376;10.944;2022-12-18T00:24:16;49.30;;;17.17;;
26036;SDS011;13810;48.376;10.944;2022-12-18T00:24:47;45.80;;;16.70;;
26036;SDS011;13810;48.376;10.944;2022-12-18T00:25:18;50.67;;;17.25;;
26036;SDS011;13810;48.376;10.944;2022-12-18T00:25:49;49.70;;;17.58;;
26036;SDS011;13810;48.376;10.944;2022-12-18T00:26:20;57.33;;;20.30;;
26036;SDS011;13810;48.376;10.944;2022-12-18T00:26:54;46.97;;;17.98;;
26036;SDS011;13810;48.376;10.944;2022-12-18T00:27:25;54.08;;;21.42;;
26036;SDS011;13810;48.376;10.944;2022-12-18T00:27:56;51.50;;;19.90;;
26036;SDS011;13810;48.376;10.944;2022-12-18T00:28:27;61.22;;;19.35;;
26036;SDS011;13810;48.376;10.944;2022-12-18T00:28:58;52.60;;;19.40;;
26036;SDS011;13810;48.376;10.944;2022-12-18T00:29:30;52.90;;;17.60;;
26036;SDS011;13810;48.376;10.944;2022-12-18T00:30:01;52.22;;;19.50;;
26036;SDS011;13810;48.376;10.944;2022-12-18T00:30:32;56.88;;;18.63;;
26036;SDS011;13810;48.376;10.944;2022-12-18T00:31:06;63.95;;;20.65;;
26036;SDS011;13810;48.376;10.944;2022-12-18T00:31:38;53.22;;;17.38;;
26036;SDS011;13810;48.376;10.944;2022-12-18T00:32:10;55.55;;;19.40;;
26036;SDS011;13810;48.376;10.944;2022-12-18T00:32:40;43.97;;;17.55;;
26036;SDS011;13810;48.376;10.944;2022-12-18T00:33:11;46.90;;;17.27;;
26036;SDS011;13810;48.376;10.944;2022-12-18T00:33:42;58.67;;;20.90;;
26036;SDS011;13810;48.376;10.944;2022-12-18T00:34:13;52.67;;;18.90;;
26036;SDS011;13810;48.376;10.944;2022-12-18T00:34:43;49.53;;;18.90;;
26036;SDS011;13810;48.376;10.944;2022-12-18T00:35:14;46.60;;;18.85;;
26036;SDS011;13810;48.376;10.944;2022-12-18T00:35:45;41.47;;;16.42;;
26036;SDS011;13810;48.376;10.944;2022-12-18T00:36:19;53.33;;;19.23;;
26036;SDS011;13810;48.376;10.944;2022-12-18T00:36:51;50.83;;;16.60;;
26036;SDS011;13810;48.376;10.944;2022-12-18T00:37:22;55.95;;;18.63;;
26036;SDS011;13810;48.376;10.944;2022-12-18T00:37:53;48.05;;;16.98;;
26036;SDS011;13810;48.376;10.944;2022-12-18T00:38:23;43.30;;;16.85;;
26036;SDS011;13810;48.376;10.944;2022-12-18T00:38:54;55.55;;;19.08;;
26036;SDS011;13810;48.376;10.944;2022-12-18T00:39:26;52.10;;;17.63;;
26036;SDS011;13810;48.376;10.944;2022-12-18T00:39:57;42.55;;;18.58;;
26036;SDS011;13810;48.376;10.944;2022-12-18T00:40:27;53.28;;;19.38;;
26036;SDS011;13810;48.376;10.944;2022-12-18T00:40:58;51.92;;;17.23;;
26036;SDS011;13810;48.376;10.944;2022-12-18T00:41:29;47.03;;;17.52;;
26036;SDS011;13810;48.376;10.944;2022-12-18T00:42:18;41.05;;;14.88;;
26036;SDS011;13810;48.376;10.944;2022-12-18T00:43:07;38.60;;;14.98;;
26036;SDS011;13810;48.376;10.944;2022-12-18T00:43:38;44.08;;;17.00;;
26036;SDS011;13810;48.376;10.944;2022-12-18T00:44:10;47.95;;;18.02;;
26036;SDS011;13810;48.376;10.944;2022-12-18T00:44:42;47.17;;;16.65;;
26036;SDS011;13810;48.376;10.944;2022-12-18T00:45:13;49.85;;;18.92;;
26036;SDS011;13810;48.376;10.944;2022-12-18T00:45:44;46.40;;;18.42;;
26036;SDS011;13810;48.376;10.944;2022-12-18T00:46:15;42.95;;;15.80;;
26036;SDS011;13810;48.376;10.944;2022-12-18T00:46:46;53.25;;;17.65;;
26036;SDS011;13810;48.376;10.944;2022-12-18T00:47:18;44.40;;;17.55;;
26036;SDS011;13810;48.376;10.944;2022-12-18T00:47:48;46.92;;;17.65;;
26036;SDS011;13810;48.376;10.944;2022-12-18T00:48:19;51.30;;;18.13;;
26036;SDS011;13810;48.376;10.944;2022-12-18T00:48:50;55.60;;;18.88;;
26036;SDS011;13810;48.376;10.944;2022-12-18T00:49:20;51.20;;;17.55;;
26036;SDS011;13810;48.376;10.944;2022-12-18T00:49:51;57.38;;;20.80;;
26036;SDS011;13810;48.376;10.944;2022-12-18T00:50:23;63.65;;;22.00;;
26036;SDS011;13810;48.376;10.944;2022-12-18T00:50:55;50.78;;;20.60;;
26036;SDS011;13810;48.376;10.944;2022-12-18T00:51:26;51.55;;;19.15;;
26036;SDS011;13810;48.376;10.944;2022-12-18T00:51:57;62.10;;;23.48;;
26036;SDS011;13810;48.376;10.944;2022-12-18T00:52:27;60.40;;;21.40;;
26036;SDS011;13810;48.376;10.944;2022-12-18T00:52:58;61.28;;;20.80;;
26036;SDS011;13810;48.376;10.944;2022-12-18T00:53:29;54.58;;;21.25;;
26036;SDS011;13810;48.376;10.944;2022-12-18T00:53:59;56.00;;;20.83;;
26036;SDS011;13810;48.376;10.944;2022-12-18T00:54:30;59.65;;;21.55;;
26036;SDS011;13810;48.376;10.944;2022-12-18T00:55:00;49.92;;;21.50;;
26036;SDS011;13810;48.376;10.944;2022-12-18T00:55:31;60.10;;;20.67;;
26036;SDS011;13810;48.376;10.944;2022-12-18T00:56:02;62.35;;;21.52;;
26036;SDS011;13810;48.376;10.944;2022-12-18T00:56:34;54.03;;;18.23;;
26036;SDS011;13810;48.376;10.944;2022-12-18T00:57:07;57.90;;;21.77;;
26036;SDS011;13810;48.376;10.944;2022-12-18T00:57:37;56.17;;;20.02;;
26036;SDS011;13810;48.376;10.944;2022-12-18T00:58:09;74.57;;;23.27;;
26036;SDS011;13810;48.376;10.944;2022-12-18T00:58:40;62.50;;;22.48;;
26036;SDS011;13810;48.376;10.944;2022-12-18T00:59:11;59.13;;;20.40;;
26036;SDS011;13810;48.376;10.944;2022-12-18T00:59:42;56.30;;;19.88;;
26036;SDS011;13810;48.376;10.944;2022-12-18T01:00:14;62.25;;;19.13;;
26036;SDS011;13810;48.376;10.944;2022-12-18T01:00:45;56.95;;;21.30;;
26036;SDS011;13810;48.376;10.944;2022-12-18T01:01:16;63.05;;;21.33;;
26036;SDS011;13810;48.376;10.944;2022-12-18T01:01:47;52.92;;;19.75;;
26036;SDS011;13810;48.376;10.944;2022-12-18T01:02:17;62.05;;;20.60;;
26036;SDS011;13810;48.376;10.944;2022-12-18T01:02:48;56.58;;;21.05;;
26036;SDS011;13810;48.376;10.944;2022-12-18T01:03:19;62.38;;;20.70;;
26036;SDS011;13810;48.376;10.944;2022-12-18T01:03:50;64.47;;;21.95;;
26036;SDS011;13810;48.376;10.944;2022-12-18T01:04:20;52.30;;;18.67;;
26036;SDS011;13810;48.376;10.944;2022-12-18T01:04:51;60.65;;;21.85;;
26036;SDS011;13810;48.376;10.944;2022-12-18T01:05:22;54.20;;;21.08;;
26036;SDS011;13810;48.376;10.944;2022-12-18T01:05:52;61.00;;;21.60;;
26036;SDS011;13810;48.376;10.944;2022-12-18T01:06:23;78.90;;;25.45;;
26036;SDS011;13810;48.376;10.944;2022-12-18T01:06:54;55.35;;;20.17;;
26036;SDS011;13810;48.376;10.944;2022-12-18T01:07:24;56.15;;;20.17;;
26036;SDS011;13810;48.376;10.944;2022-12-18T01:07:55;62.35;;;21.67;;
26036;SDS011;13810;48.376;10.944;2022-12-18T01:08:26;52.25;;;19.52;;
26036;SDS011;13810;48.376;10.944;2022-12-18T01:08:57;62.92;;;20.63;;
26036;SDS011;13810;48.376;10.944;2022-12-18T01:09:28;63.50;;;21.83;;
26036;SDS011;13810;48.376;10.944;2022-12-18T01:09:58;59.72;;;21.45;;
26036;SDS011;13810;48.376;10.944;2022-12-18T01:10:29;52.47;;;21.17;;
26036;SDS011;13810;48.376;10.944;2022-12-18T01:11:00;55.53;;;20.83;;
26036;SDS011;13810;48.376;10.944;2022-12-18T01:11:37;65.32;;;22.15;;
26036;SDS011;13810;48.376;10.944;2022-12-18T01:12:07;69.13;;;22.13;;
26036;SDS011;13810;48.376;10.944;2022-12-18T01:12:38;58.30;;;19.70;;
26036;SDS011;13810;48.376;10.944;2022-12-18T01:13:09;59.50;;;22.90;;
26036;SDS011;13810;48.376;10.944;2022-12-18T01:13:39;64.50;;;20.77;;
26036;SDS011;13810;48.376;10.944;2022-12-18T01:14:11;59.40;;;20.52;;
26036;SDS011;13810;48.376;10.944;2022-12-18T01:14:41;56.35;;;18.42;;
26036;SDS011;13810;48.376;10.944;2022-12-18T01:15:12;58.53;;;19.83;;
26036;SDS011;13810;48.376;10.944;2022-12-18T01:15:50;57.50;;;19.08;;
26036;SDS011;13810;48.376;10.944;2022-12-18T01:16:21;44.40;;;15.93;;
26036;SDS011;13810;48.376;10.944;2022-12-18T01:16:55;44.25;;;14.57;;
26036;SDS011;13810;48.376;10.944;2022-12-18T01:17:26;43.65;;;16.15;;
26036;SDS011;13810;48.376;10.944;2022-12-18T01:17:56;40.83;;;15.27;;
26036;SDS011;13810;48.376;10.944;2022-12-18T01:18:27;47.00;;;16.08;;
26036;SDS011;13810;48.376;10.944;2022-12-18T01:18:58;39.80;;;14.90;;
26036;SDS011;13810;48.376;10.944;2022-12-18T01:19:29;41.70;;;15.15;;
26036;SDS011;13810;48.376;10.944;2022-12-18T01:19:59;55.55;;;17.10;;
26036;SDS011;13810;48.376;10.944;2022-12-18T01:20:30;39.60;;;15.90;;
26036;SDS011;13810;48.376;10.944;2022-12-18T01:21:05;44.83;;;16.05;;
26036;SDS011;13810;48.376;10.944;2022-12-18T01:21:38;46.40;;;15.57;;
26036;SDS011;13810;48.376;10.944;2022-12-18T01:22:09;43.85;;;16.38;;
26036;SDS011;13810;48.376;10.944;2022-12-18T01:22:39;51.85;;;18.90;;
26036;SDS011;13810;48.376;10.944;2022-12-18T01:23:10;46.38;;;15.25;;
26036;SDS011;13810;48.376;10.944;2022-12-18T01:23:41;64.43;;;19.80;;
26036;SDS011;13810;48.376;10.944;2022-12-18T01:24:12;43.55;;;14.57;;
26036;SDS011;13810;48.376;10.944;2022-12-18T01:24:42;53.28;;;18.10;;
26036;SDS011;13810;48.376;10.944;2022-12-18T01:25:13;49.10;;;17.42;;
26036;SDS011;13810;48.376;10.944;2022-12-18T01:25:43;44.50;;;17.45;;
26036;SDS011;13810;48.376;10.944;2022-12-18T01:26:15;54.45;;;18.25;;
26036;SDS011;13810;48.376;10.944;2022-12-18T01:26:46;52.10;;;18.27;;
26036;SDS011;13810;48.376;10.944;2022-12-18T01:27:16;58.70;;;19.00;;
26036;SDS011;13810;48.376;10.944;2022-12-18T01:27:47;44.42;;;15.48;;
26036;SDS011;13810;48.376;10.944;2022-12-18T01:28:18;43.45;;;17.10;;
26036;SDS011;13810;48.376;10.944;2022-12-18T01:28:48;58.13;;;18.25;;
26036;SDS011;13810;48.376;10.944;2022-12-18T01:29:19;49.53;;;16.42;;
26036;SDS011;13810;48.376;10.944;2022-12-18T01:29:50;50.30;;;18.02;;
26036;SDS011;13810;48.376;10.944;2022-12-18T01:30:21;53.65;;;17.77;;
26036;SDS011;13810;48.376;10.944;2022-12-18T01:30:51;42.00;;;16.35;;
26036;SDS011;13810;48.376;10.944;2022-12-18T01:31:26;51.53;;;18.08;;
26036;SDS011;13810;48.376;10.944;2022-12-18T01:31:58;49.40;;;17.48;;
26036;SDS011;13810;48.376;10.944;2022-12-18T01:32:29;54.72;;;17.80;;
26036;SDS011;13810;48.376;10.944;2022-12-18T01:33:01;49.78;;;16.23;;
26036;SDS011;13810;48.376;10.944;2022-12-18T01:33:33;46.05;;;18.05;;
26036;SDS011;13810;48.376;10.944;2022-12-18T01:34:04;50.50;;;17.60;;
26036;SDS011;13810;48.376;10.944;2022-12-18T01:34:36;55.45;;;18.77;;
26036;SDS011;13810;48.376;10.944;2022-12-18T01:35:07;58.15;;;19.45;;
26036;SDS011;13810;48.376;10.944;2022-12-18T01:35:41;69.20;;;18.83;;
26036;SDS011;13810;48.376;10.944;2022-12-18T01:36:19;58.15;;;19.85;;
26036;SDS011;13810;48.376;10.944;2022-12-18T01:36:52;57.78;;;19.40;;
26036;SDS011;13810;48.376;10.944;2022-12-18T01:37:22;53.17;;;17.48;;
26036;SDS011;13810;48.376;10.944;2022-12-18T01:37:56;53.38;;;18.27;;
26036;SDS011;13810;48.376;10.944;2022-12-18T01:38:27;56.55;;;17.73;;
26036;SDS011;13810;48.376;10.944;2022-12-18T01:39:02;53.92;;;19.75;;
26036;SDS011;13810;48.376;10.944;2022-12-18T01:39:35;49.60;;;18.48;;
26036;SDS011;13810;48.376;10.944;2022-12-18T01:40:06;46.90;;;18.05;;
26036;SDS011;13810;48.376;10.944;2022-12-18T01:40:37;48.00;;;17.02;;
26036;SDS011;13810;48.376;10.944;2022-12-18T01:41:08;45.92;;;18.33;;
26036;SDS011;13810;48.376;10.944;2022-12-18T01:41:40;43.30;;;18.88;;
26036;SDS011;13810;48.376;10.944;2022-12-18T01:42:30;60.65;;;18.30;;
26036;SDS011;13810;48.376;10.944;2022-12-18T01:43:00;55.38;;;18.23;;
26036;SDS011;13810;48.376;10.944;2022-12-18T01:43:41;50.15;;;18.98;;
26036;SDS011;13810;48.376;10.944;2022-12-18T01:45:27;40.67;;;15.98;;
26036;SDS011;13810;48.376;10.944;2022-12-18T01:45:59;44.47;;;17.17;;
26036;SDS011;13810;48.376;10.944;2022-12-18T01:46:30;39.88;;;16.35;;
26036;SDS011;13810;48.376;10.944;2022-12-18T01:47:00;51.90;;;18.45;;
26036;SDS011;13810;48.376;10.944;2022-12-18T01:48:10;55.78;;;19.13;;
26036;SDS011;13810;48.376;10.944;2022-12-18T01:48:41;59.80;;;19.50;;
26036;SDS011;13810;48.376;10.944;2022-12-18T01:49:13;53.80;;;18.00;;
26036;SDS011;13810;48.376;10.944;2022-12-18T01:49:44;49.28;;;17.67;;
26036;SDS011;13810;48.376;10.944;2022-12-18T01:50:28;48.40;;;16.25;;
26036;SDS011;13810;48.376;10.944;2022-12-18T01:51:06;40.88;;;16.17;;
26036;SDS011;13810;48.376;10.944;2022-12-18T01:51:39;49.10;;;18.20;;
26036;SDS011;13810;48.376;10.944;2022-12-18T01:52:10;45.00;;;17.85;;
26036;SDS011;13810;48.376;10.944;2022-12-18T01:52:45;57.30;;;18.75;;
26036;SDS011;13810;48.376;10.944;2022-12-18T01:53:19;47.92;;;17.90;;
26036;SDS011;13810;48.376;10.944;2022-12-18T01:53:52;53.25;;;17.25;;
26036;SDS011;13810;48.376;10.944;2022-12-18T01:54:23;53.60;;;18.65;;
26036;SDS011;13810;48.376;10.944;2022-12-18T01:54:53;57.30;;;20.10;;
26036;SDS011;13810;48.376;10.944;2022-12-18T01:55:26;56.45;;;19.48;;
26036;SDS011;13810;48.376;10.944;2022-12-18T01:55:59;51.85;;;19.02;;
26036;SDS011;13810;48.376;10.944;2022-12-18T01:56:30;55.45;;;19.35;;
26036;SDS011;13810;48.376;10.944;2022-12-18T01:57:01;57.38;;;18.95;;
26036;SDS011;13810;48.376;10.944;2022-12-18T01:57:31;62.47;;;19.88;;
26036;SDS011;13810;48.376;10.944;2022-12-18T01:58:02;60.28;;;19.98;;
26036;SDS011;13810;48.376;10.944;2022-12-18T01:59:39;49.00;;;16.92;;
26036;SDS011;13810;48.376;10.944;2022-12-18T02:00:12;47.50;;;17.48;;
26036;SDS011;13810;48.376;10.944;2022-12-18T02:00:45;50.40;;;18.20;;
26036;SDS011;13810;48.376;10.944;2022-12-18T02:01:16;59.13;;;18.42;;
26036;SDS011;13810;48.376;10.944;2022-12-18T02:01:47;58.80;;;20.92;;
26036;SDS011;13810;48.376;10.944;2022-12-18T02:02:17;55.15;;;18.48;;
26036;SDS011;13810;48.376;10.944;2022-12-18T02:02:49;58.15;;;18.58;;
26036;SDS011;13810;48.376;10.944;2022-12-18T02:03:20;52.28;;;16.65;;
26036;SDS011;13810;48.376;10.944;2022-12-18T02:03:51;59.30;;;19.92;;
26036;SDS011;13810;48.376;10.944;2022-12-18T02:04:23;66.13;;;17.88;;
26036;SDS011;13810;48.376;10.944;2022-12-18T02:04:56;62.65;;;19.13;;
26036;SDS011;13810;48.376;10.944;2022-12-18T02:05:31;60.65;;;21.88;;
26036;SDS011;13810;48.376;10.944;2022-12-18T02:06:21;53.97;;;17.10;;
26036;SDS011;13810;48.376;10.944;2022-12-18T02:07:03;46.08;;;16.20;;
26036;SDS011;13810;48.376;10.944;2022-12-18T02:08:02;35.70;;;14.73;;
26036;SDS011;13810;48.376;10.944;2022-12-18T02:09:40;47.03;;;17.75;;
26036;SDS011;13810;48.376;10.944;2022-12-18T02:10:30;32.92;;;14.80;;
26036;SDS011;13810;48.376;10.944;2022-12-18T02:11:08;49.10;;;15.57;;
26036;SDS011;13810;48.376;10.944;2022-12-18T02:14:36;51.85;;;17.85;;
26036;SDS011;13810;48.376;10.944;2022-12-18T02:15:17;54.08;;;16.13;;
26036;SDS011;13810;48.376;10.944;2022-12-18T02:18:26;43.50;;;16.27;;
26036;SDS011;13810;48.376;10.944;2022-12-18T02:19:01;46.33;;;16.42;;
26036;SDS011;13810;48.376;10.944;2022-12-18T02:20:24;43.22;;;16.38;;
26036;SDS011;13810;48.376;10.944;2022-12-18T02:23:24;33.38;;;13.88;;
26036;SDS011;13810;48.376;10.944;2022-12-18T02:24:44;38.13;;;14.70;;
26036;SDS011;13810;48.376;10.944;2022-12-18T02:26:46;29.50;;;12.30;;
26036;SDS011;13810;48.376;10.944;2022-12-18T02:27:20;42.70;;;14.80;;
26036;SDS011;13810;48.376;10.944;2022-12-18T02:27:51;47.47;;;16.35;;
26036;SDS011;13810;48.376;10.944;2022-12-18T02:28:25;47.08;;;15.23;;
26036;SDS011;13810;48.376;10.944;2022-12-18T02:29:03;44.35;;;15.43;;
26036;SDS011;13810;48.376;10.944;2022-12-18T02:29:46;45.45;;;14.52;;
26036;SDS011;13810;48.376;10.944;2022-12-18T02:30:20;41.72;;;16.50;;
26036;SDS011;13810;48.376;10.944;2022-12-18T02:30:52;41.25;;;16.23;;
26036;SDS011;13810;48.376;10.944;2022-12-18T02:31:27;46.33;;;17.48;;
26036;SDS011;13810;48.376;10.944;2022-12-18T02:32:02;46.17;;;15.88;;
26036;SDS011;13810;48.376;10.944;2022-12-18T02:32:39;49.88;;;16.73;;
26036;SDS011;13810;48.376;10.944;2022-12-18T02:33:13;42.30;;;17.80;;
26036;SDS011;13810;48.376;10.944;2022-12-18T02:33:45;48.38;;;17.92;;
26036;SDS011;13810;48.376;10.944;2022-12-18T02:34:18;45.25;;;16.95;;
26036;SDS011;13810;48.376;10.944;2022-12-18T02:34:51;51.90;;;17.00;;
26036;SDS011;13810;48.376;10.944;2022-12-18T02:35:26;56.92;;;16.85;;
26036;SDS011;13810;48.376;10.944;2022-12-18T02:35:59;57.55;;;17.58;;
26036;SDS011;13810;48.376;10.944;2022-12-18T02:36:31;44.08;;;17.15;;
26036;SDS011;13810;48.376;10.944;2022-12-18T02:37:04;51.22;;;17.17;;
26036;SDS011;13810;48.376;10.944;2022-12-18T02:37:39;41.20;;;16.13;;
26036;SDS011;13810;48.376;10.944;2022-12-18T02:38:12;54.83;;;18.85;;
26036;SDS011;13810;48.376;10.944;2022-12-18T02:38:44;37.60;;;16.40;;
26036;SDS011;13810;48.376;10.944;2022-12-18T02:39:16;50.85;;;18.08;;
26036;SDS011;13810;48.376;10.944;2022-12-18T02:39:49;42.92;;;16.33;;
26036;SDS011;13810;48.376;10.944;2022-12-18T02:40:23;52.70;;;17.33;;
26036;SDS011;13810;48.376;10.944;2022-12-18T02:40:56;48.90;;;16.70;;
26036;SDS011;13810;48.376;10.944;2022-12-18T02:41:27;51.10;;;16.50;;
26036;SDS011;13810;48.376;10.944;2022-12-18T02:41:59;43.00;;;17.23;;
26036;SDS011;13810;48.376;10.944;2022-12-18T02:42:37;48.40;;;16.77;;
26036;SDS011;13810;48.376;10.944;2022-12-18T02:43:09;63.20;;;17.58;;
26036;SDS011;13810;48.376;10.944;2022-12-18T02:43:46;51.50;;;18.73;;
26036;SDS011;13810;48.376;10.944;2022-12-18T02:44:19;44.05;;;16.67;;
26036;SDS011;13810;48.376;10.944;2022-12-18T02:44:51;44.42;;;16.95;;
26036;SDS011;13810;48.376;10.944;2022-12-18T02:45:25;44.05;;;17.27;;
26036;SDS011;13810;48.376;10.944;2022-12-18T02:45:57;45.25;;;17.02;;
26036;SDS011;13810;48.376;10.944;2022-12-18T02:46:31;66.55;;;19.83;;
26036;SDS011;13810;48.376;10.944;2022-12-18T02:47:04;47.72;;;16.42;;
26036;SDS011;13810;48.376;10.944;2022-12-18T02:47:38;50.03;;;18.02;;
26036;SDS011;13810;48.376;10.944;2022-12-18T02:48:12;60.35;;;17.73;;
26036;SDS011;13810;48.376;10.944;2022-12-18T02:48:42;49.38;;;17.05;;
26036;SDS011;13810;48.376;10.944;2022-12-18T02:49:35;49.08;;;17.30;;
26036;SDS011;13810;48.376;10.944;2022-12-18T02:51:29;38.65;;;14.00;;
26036;SDS011;13810;48.376;10.944;2022-12-18T02:53:49;42.30;;;15.02;;
26036;SDS011;13810;48.376;10.944;2022-12-18T02:56:26;24.65;;;11.77;;
26036;SDS011;13810;48.376;10.944;2022-12-18T02:57:42;34.35;;;13.88;;
26036;SDS011;13810;48.376;10.944;2022-12-18T02:58:26;47.85;;;15.75;;
26036;SDS011;13810;48.376;10.944;2022-12-18T02:59:04;37.67;;;14.32;;
26036;SDS011;13810;48.376;10.944;2022-12-18T02:59:47;45.88;;;13.43;;
26036;SDS011;13810;48.376;10.944;2022-12-18T03:02:55;39.03;;;14.85;;
26036;SDS011;13810;48.376;10.944;2022-12-18T03:03:39;41.20;;;14.52;;
26036;SDS011;13810;48.376;10.944;2022-12-18T03:04:30;36.67;;;13.05;;
26036;SDS011;13810;48.376;10.944;2022-12-18T03:05:18;40.65;;;13.05;;
26036;SDS011;13810;48.376;10.944;2022-12-18T03:06:38;27.40;;;11.35;;
26036;SDS011;13810;48.376;10.944;2022-12-18T03:06:54;30.25;;;11.25;;
26036;SDS011;13810;48.376;10.944;2022-12-18T03:07:33;26.73;;;10.82;;
26036;SDS011;13810;48.376;10.944;2022-12-18T03:08:10;36.58;;;13.82;;
26036;SDS011;13810;48.376;10.944;2022-12-18T03:08:46;45.70;;;12.82;;
26036;SDS011;13810;48.376;10.944;2022-12-18T03:09:32;38.63;;;12.35;;
26036;SDS011;13810;48.376;10.944;2022-12-18T03:10:06;31.20;;;10.73;;
26036;SDS011;13810;48.376;10.944;2022-12-18T03:10:39;39.22;;;13.65;;
26036;SDS011;13810;48.376;10.944;2022-12-18T03:11:15;40.53;;;14.38;;
26036;SDS011;13810;48.376;10.944;2022-12-18T03:12:09;36.42;;;13.70;;
26036;SDS011;13810;48.376;10.944;2022-12-18T03:13:04;25.23;;;12.02;;
26036;SDS011;13810;48.376;10.944;2022-12-18T03:14:21;30.77;;;12.07;;
26036;SDS011;13810;48.376;10.944;2022-12-18T03:15:46;35.10;;;11.38;;
26036;SDS011;13810;48.376;10.944;2022-12-18T03:16:25;34.55;;;12.93;;
26036;SDS011;13810;48.376;10.944;2022-12-18T03:17:02;43.92;;;14.07;;
26036;SDS011;13810;48.376;10.944;2022-12-18T03:17:34;39.95;;;12.30;;
26036;SDS011;13810;48.376;10.944;2022-12-18T03:18:08;42.72;;;14.55;;
26036;SDS011;13810;48.376;10.944;2022-12-18T03:19:16;37.42;;;12.93;;
26036;SDS011;13810;48.376;10.944;2022-12-18T03:19:51;52.78;;;13.98;;
26036;SDS011;13810;48.376;10.944;2022-12-18T03:20:26;38.50;;;13.45;;
26036;SDS011;13810;48.376;10.944;2022-12-18T03:21:02;39.83;;;12.00;;
26036;SDS011;13810;48.376;10.944;2022-12-18T03:21:42;41.55;;;12.98;;
26036;SDS011;13810;48.376;10.944;2022-12-18T03:22:15;38.97;;;11.23;;
26036;SDS011;13810;48.376;10.944;2022-12-18T03:22:47;38.08;;;12.80;;
26036;SDS011;13810;48.376;10.944;2022-12-18T03:23:23;38.30;;;13.63;;
26036;SDS011;13810;48.376;10.944;2022-12-18T03:23:59;41.17;;;13.55;;
26036;SDS011;13810;48.376;10.944;2022-12-18T03:24:30;39.05;;;14.52;;
26036;SDS011;13810;48.376;10.944;2022-12-18T03:25:04;32.90;;;12.52;;
26036;SDS011;13810;48.376;10.944;2022-12-18T03:25:38;41.30;;;14.18;;
26036;SDS011;13810;48.376;10.944;2022-12-18T03:26:12;35.70;;;13.55;;
26036;SDS011;13810;48.376;10.944;2022-12-18T03:26:49;43.95;;;12.95;;
26036;SDS011;13810;48.376;10.944;2022-12-18T03:27:22;50.40;;;14.65;;
26036;SDS011;13810;48.376;10.944;2022-12-18T03:27:55;38.90;;;12.63;;
26036;SDS011;13810;48.376;10.944;2022-12-18T03:28:29;37.05;;;11.95;;
26036;SDS011;13810;48.376;10.944;2022-12-18T03:29:06;43.25;;;13.90;;
26036;SDS011;13810;48.376;10.944;2022-12-18T03:30:12;38.00;;;13.43;;
26036;SDS011;13810;48.376;10.944;2022-12-18T03:30:45;39.53;;;14.15;;
26036;SDS011;13810;48.376;10.944;2022-12-18T03:31:17;33.38;;;12.27;;
26036;SDS011;13810;48.376;10.944;2022-12-18T03:31:53;39.92;;;13.30;;
26036;SDS011;13810;48.376;10.944;2022-12-18T03:32:30;39.90;;;12.57;;
26036;SDS011;13810;48.376;10.944;2022-12-18T03:34:10;28.67;;;10.15;;
26036;SDS011;13810;48.376;10.944;2022-12-18T03:34:44;30.95;;;12.30;;
26036;SDS011;13810;48.376;10.944;2022-12-18T03:35:21;30.40;;;12.25;;
26036;SDS011;13810;48.376;10.944;2022-12-18T03:35:54;30.38;;;11.63;;
26036;SDS011;13810;48.376;10.944;2022-12-18T03:36:25;48.17;;;16.25;;
26036;SDS011;13810;48.376;10.944;2022-12-18T03:37:01;32.25;;;12.40;;
26036;SDS011;13810;48.376;10.944;2022-12-18T03:37:32;43.00;;;12.43;;
26036;SDS011;13810;48.376;10.944;2022-12-18T03:38:03;40.80;;;15.40;;
26036;SDS011;13810;48.376;10.944;2022-12-18T03:38:33;34.20;;;12.45;;